sensor_id;sensor_type;location;lat;lon;timestamp;P1;durP1;ratioP1;P2;durP2;ratioP2
60859;SDS011;46694;54.382;9.708;2023-06-24T00:01:48;14.20;;;8.00;;
60859;SDS011;46694;54.382;9.708;2023-06-24T00:04:27;8.90;;;7.13;;
60859;SDS011;46694;54.382;9.708;2023-06-24T00:07:07;10.23;;;7.33;;
60859;SDS011;46694;54.382;9.708;2023-06-24T00:09:46;10.40;;;7.90;;
60859;SDS011;46694;54.382;9.708;2023-06-24T00:12:26;9.43;;;8.37;;
60859;SDS011;46694;54.382;9.708;2023-06-24T00:15:06;13.77;;;8.20;;
60859;SDS011;46694;54.382;9.708;2023-06-24T00:17:49;11.03;;;7.40;;
60859;SDS011;46694;54.382;9.708;2023-06-24T00:20:29;12.07;;;8.33;;
60859;SDS011;46694;54.382;9.708;2023-06-24T00:23:09;15.50;;;8.60;;
60859;SDS011;46694;54.382;9.708;2023-06-24T00:25:53;10.90;;;8.53;;
60859;SDS011;46694;54.382;9.708;2023-06-24T00:28:33;9.50;;;8.13;;
60859;SDS011;46694;54.382;9.708;2023-06-24T00:31:13;13.83;;;8.50;;
60859;SDS011;46694;54.382;9.708;2023-06-24T00:33:52;12.70;;;8.93;;
60859;SDS011;46694;54.382;9.708;2023-06-24T00:36:32;9.90;;;8.70;;
60859;SDS011;46694;54.382;9.708;2023-06-24T00:39:11;10.33;;;8.80;;
60859;SDS011;46694;54.382;9.708;2023-06-24T00:41:51;12.73;;;8.70;;
60859;SDS011;46694;54.382;9.708;2023-06-24T00:44:30;10.20;;;8.57;;
60859;SDS011;46694;54.382;9.708;2023-06-24T00:47:10;9.83;;;8.10;;
60859;SDS011;46694;54.382;9.708;2023-06-24T00:49:50;16.70;;;8.97;;
60859;SDS011;46694;54.382;9.708;2023-06-24T00:52:30;16.63;;;9.53;;
60859;SDS011;46694;54.382;9.708;2023-06-24T00:55:10;10.07;;;8.53;;
60859;SDS011;46694;54.382;9.708;2023-06-24T00:57:54;16.63;;;9.40;;
60859;SDS011;46694;54.382;9.708;2023-06-24T01:00:34;21.60;;;8.10;;
60859;SDS011;46694;54.382;9.708;2023-06-24T01:03:14;17.80;;;8.50;;
60859;SDS011;46694;54.382;9.708;2023-06-24T01:05:53;19.00;;;9.47;;
60859;SDS011;46694;54.382;9.708;2023-06-24T01:08:33;14.57;;;9.00;;
60859;SDS011;46694;54.382;9.708;2023-06-24T01:11:13;15.50;;;9.03;;
60859;SDS011;46694;54.382;9.708;2023-06-24T01:13:53;13.13;;;8.53;;
60859;SDS011;46694;54.382;9.708;2023-06-24T01:16:44;10.10;;;8.07;;
60859;SDS011;46694;54.382;9.708;2023-06-24T01:32:09;10.97;;;8.90;;
60859;SDS011;46694;54.382;9.708;2023-06-24T01:34:57;10.30;;;8.40;;
60859;SDS011;46694;54.382;9.708;2023-06-24T01:37:44;15.83;;;9.70;;
60859;SDS011;46694;54.382;9.708;2023-06-24T01:40:59;12.90;;;8.20;;
60859;SDS011;46694;54.382;9.708;2023-06-24T01:43:33;14.70;;;8.93;;
60859;SDS011;46694;54.382;9.708;2023-06-24T01:46:14;13.00;;;8.20;;
60859;SDS011;46694;54.382;9.708;2023-06-24T01:49:01;13.17;;;9.20;;
60859;SDS011;46694;54.382;9.708;2023-06-24T01:51:43;15.53;;;9.00;;
60859;SDS011;46694;54.382;9.708;2023-06-24T01:54:26;14.40;;;7.93;;
60859;SDS011;46694;54.382;9.708;2023-06-24T01:57:07;11.97;;;8.03;;
60859;SDS011;46694;54.382;9.708;2023-06-24T01:59:48;17.23;;;8.83;;
60859;SDS011;46694;54.382;9.708;2023-06-24T02:02:31;9.30;;;8.30;;
60859;SDS011;46694;54.382;9.708;2023-06-24T02:05:11;8.93;;;7.80;;
60859;SDS011;46694;54.382;9.708;2023-06-24T02:07:52;10.60;;;7.70;;
60859;SDS011;46694;54.382;9.708;2023-06-24T02:10:33;15.37;;;8.87;;
60859;SDS011;46694;54.382;9.708;2023-06-24T02:13:16;9.00;;;7.03;;
60859;SDS011;46694;54.382;9.708;2023-06-24T02:15:56;12.67;;;8.17;;
60859;SDS011;46694;54.382;9.708;2023-06-24T02:18:37;14.83;;;8.30;;
60859;SDS011;46694;54.382;9.708;2023-06-24T02:21:21;9.67;;;7.97;;
60859;SDS011;46694;54.382;9.708;2023-06-24T02:24:03;12.40;;;8.40;;
60859;SDS011;46694;54.382;9.708;2023-06-24T02:26:43;11.30;;;8.53;;
60859;SDS011;46694;54.382;9.708;2023-06-24T02:29:25;13.20;;;8.17;;
60859;SDS011;46694;54.382;9.708;2023-06-24T02:32:06;10.40;;;7.63;;
60859;SDS011;46694;54.382;9.708;2023-06-24T02:34:46;15.70;;;7.57;;
60859;SDS011;46694;54.382;9.708;2023-06-24T02:37:26;15.80;;;9.30;;
60859;SDS011;46694;54.382;9.708;2023-06-24T02:40:06;9.40;;;8.40;;
60859;SDS011;46694;54.382;9.708;2023-06-24T02:42:46;14.03;;;8.33;;
60859;SDS011;46694;54.382;9.708;2023-06-24T02:45:26;9.70;;;8.17;;
60859;SDS011;46694;54.382;9.708;2023-06-24T02:48:07;13.37;;;9.10;;
60859;SDS011;46694;54.382;9.708;2023-06-24T02:50:49;8.00;;;7.20;;
60859;SDS011;46694;54.382;9.708;2023-06-24T02:53:28;14.03;;;8.13;;
60859;SDS011;46694;54.382;9.708;2023-06-24T02:56:09;9.07;;;8.17;;
60859;SDS011;46694;54.382;9.708;2023-06-24T02:58:52;10.43;;;7.40;;
60859;SDS011;46694;54.382;9.708;2023-06-24T03:01:33;13.27;;;7.23;;
60859;SDS011;46694;54.382;9.708;2023-06-24T03:04:18;8.93;;;7.37;;
60859;SDS011;46694;54.382;9.708;2023-06-24T03:06:58;15.63;;;7.73;;
60859;SDS011;46694;54.382;9.708;2023-06-24T03:09:39;10.83;;;7.50;;
60859;SDS011;46694;54.382;9.708;2023-06-24T03:12:19;10.83;;;7.97;;
60859;SDS011;46694;54.382;9.708;2023-06-24T03:14:58;12.57;;;7.50;;
60859;SDS011;46694;54.382;9.708;2023-06-24T03:17:39;13.03;;;7.70;;
60859;SDS011;46694;54.382;9.708;2023-06-24T03:20:18;12.07;;;8.10;;
60859;SDS011;46694;54.382;9.708;2023-06-24T03:22:59;8.80;;;7.93;;
60859;SDS011;46694;54.382;9.708;2023-06-24T03:25:38;8.57;;;7.70;;
60859;SDS011;46694;54.382;9.708;2023-06-24T03:28:17;15.70;;;8.47;;
60859;SDS011;46694;54.382;9.708;2023-06-24T03:30:57;11.47;;;8.07;;
60859;SDS011;46694;54.382;9.708;2023-06-24T03:33:37;12.70;;;8.10;;
60859;SDS011;46694;54.382;9.708;2023-06-24T03:36:16;7.97;;;7.17;;
60859;SDS011;46694;54.382;9.708;2023-06-24T03:38:56;11.60;;;8.20;;
60859;SDS011;46694;54.382;9.708;2023-06-24T03:41:35;9.30;;;7.20;;
60859;SDS011;46694;54.382;9.708;2023-06-24T03:44:15;11.93;;;8.03;;
60859;SDS011;46694;54.382;9.708;2023-06-24T03:46:55;10.10;;;8.50;;
60859;SDS011;46694;54.382;9.708;2023-06-24T03:49:34;9.50;;;8.00;;
60859;SDS011;46694;54.382;9.708;2023-06-24T03:52:14;9.23;;;8.00;;
60859;SDS011;46694;54.382;9.708;2023-06-24T03:54:54;10.70;;;8.17;;
60859;SDS011;46694;54.382;9.708;2023-06-24T03:57:33;9.00;;;8.10;;
60859;SDS011;46694;54.382;9.708;2023-06-24T04:00:13;10.03;;;8.27;;
60859;SDS011;46694;54.382;9.708;2023-06-24T04:02:56;12.30;;;8.13;;
60859;SDS011;46694;54.382;9.708;2023-06-24T04:05:39;9.77;;;7.07;;
60859;SDS011;46694;54.382;9.708;2023-06-24T04:08:19;11.23;;;7.73;;
60859;SDS011;46694;54.382;9.708;2023-06-24T04:10:58;10.87;;;7.30;;
60859;SDS011;46694;54.382;9.708;2023-06-24T04:13:42;15.53;;;8.13;;
60859;SDS011;46694;54.382;9.708;2023-06-24T04:16:21;7.40;;;6.43;;
60859;SDS011;46694;54.382;9.708;2023-06-24T04:19:01;11.57;;;6.97;;
60859;SDS011;46694;54.382;9.708;2023-06-24T04:21:40;15.73;;;6.80;;
60859;SDS011;46694;54.382;9.708;2023-06-24T04:24:20;8.70;;;5.93;;
60859;SDS011;46694;54.382;9.708;2023-06-24T04:27:00;8.80;;;6.30;;
60859;SDS011;46694;54.382;9.708;2023-06-24T04:29:39;9.13;;;6.37;;
60859;SDS011;46694;54.382;9.708;2023-06-24T04:32:19;7.20;;;5.60;;
60859;SDS011;46694;54.382;9.708;2023-06-24T04:34:58;5.93;;;5.10;;
60859;SDS011;46694;54.382;9.708;2023-06-24T04:37:39;8.00;;;6.07;;
60859;SDS011;46694;54.382;9.708;2023-06-24T04:40:19;6.73;;;5.57;;
60859;SDS011;46694;54.382;9.708;2023-06-24T04:42:58;6.30;;;5.70;;
60859;SDS011;46694;54.382;9.708;2023-06-24T04:45:38;7.90;;;6.07;;
60859;SDS011;46694;54.382;9.708;2023-06-24T04:48:18;8.73;;;5.70;;
60859;SDS011;46694;54.382;9.708;2023-06-24T04:50:57;11.53;;;5.77;;
60859;SDS011;46694;54.382;9.708;2023-06-24T04:53:37;6.60;;;5.53;;
60859;SDS011;46694;54.382;9.708;2023-06-24T04:56:16;8.10;;;6.20;;
60859;SDS011;46694;54.382;9.708;2023-06-24T04:58:56;9.53;;;5.43;;
60859;SDS011;46694;54.382;9.708;2023-06-24T05:01:35;13.23;;;5.77;;
60859;SDS011;46694;54.382;9.708;2023-06-24T05:04:16;6.50;;;5.90;;
60859;SDS011;46694;54.382;9.708;2023-06-24T05:06:55;6.37;;;5.70;;
60859;SDS011;46694;54.382;9.708;2023-06-24T05:09:35;5.90;;;5.50;;
60859;SDS011;46694;54.382;9.708;2023-06-24T05:12:16;9.70;;;5.40;;
60859;SDS011;46694;54.382;9.708;2023-06-24T05:14:56;8.63;;;5.23;;
60859;SDS011;46694;54.382;9.708;2023-06-24T05:17:35;5.63;;;5.13;;
60859;SDS011;46694;54.382;9.708;2023-06-24T05:20:15;9.07;;;5.60;;
60859;SDS011;46694;54.382;9.708;2023-06-24T05:22:56;6.10;;;5.23;;
60859;SDS011;46694;54.382;9.708;2023-06-24T05:25:35;7.63;;;5.30;;
60859;SDS011;46694;54.382;9.708;2023-06-24T05:28:15;8.00;;;5.70;;
60859;SDS011;46694;54.382;9.708;2023-06-24T05:30:54;7.53;;;5.30;;
60859;SDS011;46694;54.382;9.708;2023-06-24T05:33:36;11.77;;;6.40;;
60859;SDS011;46694;54.382;9.708;2023-06-24T05:36:15;6.70;;;5.40;;
60859;SDS011;46694;54.382;9.708;2023-06-24T05:38:55;6.80;;;5.83;;
60859;SDS011;46694;54.382;9.708;2023-06-24T05:41:34;6.97;;;5.27;;
60859;SDS011;46694;54.382;9.708;2023-06-24T05:44:14;6.00;;;4.93;;
60859;SDS011;46694;54.382;9.708;2023-06-24T05:46:53;9.67;;;6.10;;
60859;SDS011;46694;54.382;9.708;2023-06-24T05:49:33;13.43;;;6.57;;
60859;SDS011;46694;54.382;9.708;2023-06-24T05:52:13;9.40;;;5.73;;
60859;SDS011;46694;54.382;9.708;2023-06-24T05:54:52;11.10;;;6.10;;
60859;SDS011;46694;54.382;9.708;2023-06-24T05:57:32;7.40;;;5.43;;
60859;SDS011;46694;54.382;9.708;2023-06-24T06:00:12;8.70;;;5.13;;
60859;SDS011;46694;54.382;9.708;2023-06-24T06:02:51;7.63;;;6.40;;
60859;SDS011;46694;54.382;9.708;2023-06-24T06:05:31;7.20;;;5.97;;
60859;SDS011;46694;54.382;9.708;2023-06-24T06:08:11;6.47;;;5.50;;
60859;SDS011;46694;54.382;9.708;2023-06-24T06:10:50;9.80;;;5.57;;
60859;SDS011;46694;54.382;9.708;2023-06-24T06:13:30;6.40;;;5.47;;
60859;SDS011;46694;54.382;9.708;2023-06-24T06:16:10;11.10;;;5.57;;
60859;SDS011;46694;54.382;9.708;2023-06-24T06:18:50;8.17;;;5.23;;
60859;SDS011;46694;54.382;9.708;2023-06-24T06:21:29;6.53;;;4.90;;
60859;SDS011;46694;54.382;9.708;2023-06-24T06:24:09;6.77;;;4.17;;
60859;SDS011;46694;54.382;9.708;2023-06-24T06:26:48;6.80;;;4.90;;
60859;SDS011;46694;54.382;9.708;2023-06-24T06:29:28;5.20;;;4.27;;
60859;SDS011;46694;54.382;9.708;2023-06-24T06:32:07;7.53;;;5.50;;
60859;SDS011;46694;54.382;9.708;2023-06-24T06:34:47;6.13;;;4.20;;
60859;SDS011;46694;54.382;9.708;2023-06-24T06:37:27;6.00;;;4.20;;
60859;SDS011;46694;54.382;9.708;2023-06-24T06:40:06;6.33;;;3.83;;
60859;SDS011;46694;54.382;9.708;2023-06-24T06:42:47;4.23;;;3.87;;
60859;SDS011;46694;54.382;9.708;2023-06-24T06:45:27;5.23;;;4.70;;
60859;SDS011;46694;54.382;9.708;2023-06-24T06:48:06;4.97;;;4.40;;
60859;SDS011;46694;54.382;9.708;2023-06-24T06:50:47;9.53;;;5.43;;
60859;SDS011;46694;54.382;9.708;2023-06-24T06:53:27;4.77;;;4.23;;
60859;SDS011;46694;54.382;9.708;2023-06-24T06:56:06;8.20;;;4.30;;
60859;SDS011;46694;54.382;9.708;2023-06-24T06:58:46;11.83;;;5.00;;
60859;SDS011;46694;54.382;9.708;2023-06-24T07:01:25;10.77;;;4.70;;
60859;SDS011;46694;54.382;9.708;2023-06-24T07:04:04;7.47;;;4.50;;
60859;SDS011;46694;54.382;9.708;2023-06-24T07:06:44;4.03;;;3.33;;
60859;SDS011;46694;54.382;9.708;2023-06-24T07:09:27;5.10;;;4.20;;
60859;SDS011;46694;54.382;9.708;2023-06-24T07:12:07;4.53;;;4.10;;
60859;SDS011;46694;54.382;9.708;2023-06-24T07:14:47;5.67;;;4.10;;
60859;SDS011;46694;54.382;9.708;2023-06-24T07:17:27;4.40;;;3.40;;
60859;SDS011;46694;54.382;9.708;2023-06-24T07:20:06;7.23;;;3.60;;
60859;SDS011;46694;54.382;9.708;2023-06-24T07:22:46;4.60;;;3.00;;
60859;SDS011;46694;54.382;9.708;2023-06-24T07:25:26;4.00;;;3.70;;
60859;SDS011;46694;54.382;9.708;2023-06-24T07:28:06;5.07;;;3.40;;
60859;SDS011;46694;54.382;9.708;2023-06-24T07:30:46;8.10;;;3.33;;
60859;SDS011;46694;54.382;9.708;2023-06-24T07:33:26;7.03;;;3.20;;
60859;SDS011;46694;54.382;9.708;2023-06-24T07:36:05;3.00;;;2.70;;
60859;SDS011;46694;54.382;9.708;2023-06-24T07:38:45;2.43;;;2.20;;
60859;SDS011;46694;54.382;9.708;2023-06-24T07:41:24;3.40;;;2.30;;
60859;SDS011;46694;54.382;9.708;2023-06-24T07:44:04;4.67;;;2.13;;
60859;SDS011;46694;54.382;9.708;2023-06-24T07:46:44;5.17;;;2.50;;
60859;SDS011;46694;54.382;9.708;2023-06-24T07:49:23;2.53;;;2.30;;
60859;SDS011;46694;54.382;9.708;2023-06-24T07:52:03;4.30;;;2.60;;
60859;SDS011;46694;54.382;9.708;2023-06-24T07:54:45;3.27;;;2.37;;
60859;SDS011;46694;54.382;9.708;2023-06-24T07:57:26;6.17;;;2.40;;
60859;SDS011;46694;54.382;9.708;2023-06-24T08:00:06;3.07;;;2.40;;
60859;SDS011;46694;54.382;9.708;2023-06-24T08:02:49;6.83;;;2.53;;
60859;SDS011;46694;54.382;9.708;2023-06-24T08:05:29;3.07;;;2.40;;
60859;SDS011;46694;54.382;9.708;2023-06-24T08:08:08;5.93;;;2.23;;
60859;SDS011;46694;54.382;9.708;2023-06-24T08:10:48;6.10;;;1.90;;
60859;SDS011;46694;54.382;9.708;2023-06-24T08:13:27;4.53;;;2.73;;
60859;SDS011;46694;54.382;9.708;2023-06-24T08:16:07;6.20;;;2.30;;
60859;SDS011;46694;54.382;9.708;2023-06-24T08:18:47;2.47;;;1.90;;
60859;SDS011;46694;54.382;9.708;2023-06-24T08:21:26;2.00;;;1.67;;
60859;SDS011;46694;54.382;9.708;2023-06-24T08:24:06;3.40;;;1.90;;
60859;SDS011;46694;54.382;9.708;2023-06-24T08:26:46;3.53;;;2.10;;
60859;SDS011;46694;54.382;9.708;2023-06-24T08:29:25;3.20;;;1.93;;
60859;SDS011;46694;54.382;9.708;2023-06-24T08:32:05;6.70;;;2.70;;
60859;SDS011;46694;54.382;9.708;2023-06-24T08:34:45;3.20;;;2.00;;
60859;SDS011;46694;54.382;9.708;2023-06-24T08:37:25;5.00;;;2.10;;
60859;SDS011;46694;54.382;9.708;2023-06-24T08:40:05;3.43;;;1.83;;
60859;SDS011;46694;54.382;9.708;2023-06-24T08:42:45;4.97;;;2.00;;
60859;SDS011;46694;54.382;9.708;2023-06-24T08:45:25;3.93;;;2.53;;
60859;SDS011;46694;54.382;9.708;2023-06-24T08:48:04;2.47;;;2.07;;
60859;SDS011;46694;54.382;9.708;2023-06-24T08:50:46;2.70;;;1.87;;
60859;SDS011;46694;54.382;9.708;2023-06-24T08:53:30;5.37;;;2.00;;
60859;SDS011;46694;54.382;9.708;2023-06-24T08:56:10;1.60;;;1.50;;
60859;SDS011;46694;54.382;9.708;2023-06-24T08:58:50;3.87;;;2.20;;
60859;SDS011;46694;54.382;9.708;2023-06-24T09:01:30;4.47;;;1.73;;
60859;SDS011;46694;54.382;9.708;2023-06-24T09:04:10;4.10;;;2.03;;
60859;SDS011;46694;54.382;9.708;2023-06-24T09:06:49;2.90;;;2.00;;
60859;SDS011;46694;54.382;9.708;2023-06-24T09:09:29;2.70;;;1.63;;
60859;SDS011;46694;54.382;9.708;2023-06-24T09:12:10;2.97;;;1.80;;
60859;SDS011;46694;54.382;9.708;2023-06-24T09:14:51;4.03;;;1.60;;
60859;SDS011;46694;54.382;9.708;2023-06-24T09:17:31;2.83;;;2.53;;
60859;SDS011;46694;54.382;9.708;2023-06-24T09:20:10;4.33;;;2.30;;
60859;SDS011;46694;54.382;9.708;2023-06-24T09:22:51;2.50;;;2.30;;
60859;SDS011;46694;54.382;9.708;2023-06-24T09:25:30;7.40;;;2.53;;
60859;SDS011;46694;54.382;9.708;2023-06-24T09:28:11;3.90;;;2.47;;
60859;SDS011;46694;54.382;9.708;2023-06-24T09:31:10;1.87;;;1.70;;
60859;SDS011;46694;54.382;9.708;2023-06-24T09:33:50;3.10;;;1.93;;
60859;SDS011;46694;54.382;9.708;2023-06-24T09:36:29;2.03;;;1.77;;
60859;SDS011;46694;54.382;9.708;2023-06-24T09:39:09;3.43;;;2.03;;
60859;SDS011;46694;54.382;9.708;2023-06-24T09:41:49;3.47;;;2.10;;
60859;SDS011;46694;54.382;9.708;2023-06-24T09:44:32;2.67;;;1.90;;
60859;SDS011;46694;54.382;9.708;2023-06-24T09:47:12;2.20;;;2.00;;
60859;SDS011;46694;54.382;9.708;2023-06-24T09:49:51;4.13;;;2.27;;
60859;SDS011;46694;54.382;9.708;2023-06-24T09:52:32;5.00;;;1.90;;
60859;SDS011;46694;54.382;9.708;2023-06-24T09:55:15;5.67;;;1.83;;
60859;SDS011;46694;54.382;9.708;2023-06-24T09:57:57;3.40;;;2.70;;
60859;SDS011;46694;54.382;9.708;2023-06-24T10:00:37;2.43;;;2.23;;
60859;SDS011;46694;54.382;9.708;2023-06-24T10:03:17;5.63;;;2.30;;
60859;SDS011;46694;54.382;9.708;2023-06-24T10:06:00;4.10;;;2.17;;
60859;SDS011;46694;54.382;9.708;2023-06-24T10:08:41;8.23;;;3.00;;
60859;SDS011;46694;54.382;9.708;2023-06-24T10:11:21;6.33;;;2.00;;
60859;SDS011;46694;54.382;9.708;2023-06-24T10:14:00;11.83;;;2.90;;
60859;SDS011;46694;54.382;9.708;2023-06-24T10:16:40;3.57;;;2.57;;
60859;SDS011;46694;54.382;9.708;2023-06-24T10:19:21;4.80;;;2.50;;
60859;SDS011;46694;54.382;9.708;2023-06-24T10:22:03;9.57;;;3.30;;
60859;SDS011;46694;54.382;9.708;2023-06-24T10:24:49;3.07;;;2.80;;
60859;SDS011;46694;54.382;9.708;2023-06-24T10:27:30;2.50;;;2.30;;
60859;SDS011;46694;54.382;9.708;2023-06-24T10:30:19;4.27;;;2.70;;
60859;SDS011;46694;54.382;9.708;2023-06-24T10:33:01;4.10;;;3.00;;
60859;SDS011;46694;54.382;9.708;2023-06-24T10:35:41;2.43;;;2.33;;
60859;SDS011;46694;54.382;9.708;2023-06-24T10:38:22;4.77;;;2.60;;
60859;SDS011;46694;54.382;9.708;2023-06-24T10:41:06;3.10;;;2.77;;
60859;SDS011;46694;54.382;9.708;2023-06-24T10:43:56;2.43;;;2.23;;
60859;SDS011;46694;54.382;9.708;2023-06-24T10:46:36;3.13;;;2.87;;
60859;SDS011;46694;54.382;9.708;2023-06-24T10:49:16;3.00;;;2.80;;
60859;SDS011;46694;54.382;9.708;2023-06-24T10:51:55;3.17;;;2.60;;
60859;SDS011;46694;54.382;9.708;2023-06-24T10:54:39;3.40;;;2.60;;
60859;SDS011;46694;54.382;9.708;2023-06-24T10:57:26;3.00;;;2.77;;
60859;SDS011;46694;54.382;9.708;2023-06-24T11:00:07;3.63;;;2.90;;
60859;SDS011;46694;54.382;9.708;2023-06-24T11:02:48;4.33;;;2.53;;
60859;SDS011;46694;54.382;9.708;2023-06-24T11:05:28;3.77;;;2.40;;
60859;SDS011;46694;54.382;9.708;2023-06-24T11:08:10;2.00;;;1.77;;
60859;SDS011;46694;54.382;9.708;2023-06-24T11:10:50;3.20;;;2.30;;
60859;SDS011;46694;54.382;9.708;2023-06-24T11:13:29;3.27;;;2.60;;
60859;SDS011;46694;54.382;9.708;2023-06-24T11:16:12;3.70;;;2.70;;
60859;SDS011;46694;54.382;9.708;2023-06-24T11:18:51;3.20;;;2.77;;
60859;SDS011;46694;54.382;9.708;2023-06-24T11:21:31;2.80;;;2.60;;
60859;SDS011;46694;54.382;9.708;2023-06-24T11:24:11;2.77;;;2.57;;
60859;SDS011;46694;54.382;9.708;2023-06-24T11:26:50;4.03;;;2.60;;
60859;SDS011;46694;54.382;9.708;2023-06-24T11:29:30;2.10;;;1.90;;
60859;SDS011;46694;54.382;9.708;2023-06-24T11:32:11;4.53;;;2.57;;
60859;SDS011;46694;54.382;9.708;2023-06-24T11:34:51;3.23;;;2.70;;
60859;SDS011;46694;54.382;9.708;2023-06-24T11:37:31;5.33;;;2.83;;
60859;SDS011;46694;54.382;9.708;2023-06-24T11:40:12;3.83;;;3.00;;
60859;SDS011;46694;54.382;9.708;2023-06-24T11:42:55;7.10;;;2.53;;
60859;SDS011;46694;54.382;9.708;2023-06-24T11:45:35;3.10;;;2.60;;
60859;SDS011;46694;54.382;9.708;2023-06-24T11:48:14;3.27;;;3.00;;
60859;SDS011;46694;54.382;9.708;2023-06-24T11:50:54;2.40;;;2.20;;
60859;SDS011;46694;54.382;9.708;2023-06-24T11:53:40;2.50;;;2.30;;
60859;SDS011;46694;54.382;9.708;2023-06-24T11:56:36;4.50;;;3.33;;
60859;SDS011;46694;54.382;9.708;2023-06-24T12:02:01;4.63;;;3.10;;
60859;SDS011;46694;54.382;9.708;2023-06-24T12:04:43;4.27;;;3.33;;
60859;SDS011;46694;54.382;9.708;2023-06-24T12:07:22;11.77;;;3.57;;
60859;SDS011;46694;54.382;9.708;2023-06-24T12:10:02;3.50;;;3.20;;
60859;SDS011;46694;54.382;9.708;2023-06-24T12:12:42;16.03;;;4.00;;
60859;SDS011;46694;54.382;9.708;2023-06-24T12:15:21;3.03;;;2.77;;
60859;SDS011;46694;54.382;9.708;2023-06-24T12:18:01;5.13;;;2.60;;
60859;SDS011;46694;54.382;9.708;2023-06-24T12:20:41;7.33;;;3.50;;
60859;SDS011;46694;54.382;9.708;2023-06-24T12:23:22;3.73;;;2.70;;
60859;SDS011;46694;54.382;9.708;2023-06-24T12:26:01;3.00;;;2.80;;
60859;SDS011;46694;54.382;9.708;2023-06-24T12:28:41;2.90;;;2.70;;
60859;SDS011;46694;54.382;9.708;2023-06-24T12:31:21;3.60;;;2.83;;
60859;SDS011;46694;54.382;9.708;2023-06-24T12:34:00;2.87;;;2.50;;
60859;SDS011;46694;54.382;9.708;2023-06-24T12:36:40;4.27;;;2.60;;
60859;SDS011;46694;54.382;9.708;2023-06-24T12:39:19;3.33;;;2.37;;
60859;SDS011;46694;54.382;9.708;2023-06-24T12:41:59;3.00;;;2.10;;
60859;SDS011;46694;54.382;9.708;2023-06-24T12:44:39;6.70;;;3.37;;
60859;SDS011;46694;54.382;9.708;2023-06-24T12:47:19;2.70;;;2.50;;
60859;SDS011;46694;54.382;9.708;2023-06-24T12:49:59;3.80;;;3.13;;
60859;SDS011;46694;54.382;9.708;2023-06-24T12:52:39;3.63;;;2.70;;
60859;SDS011;46694;54.382;9.708;2023-06-24T12:55:18;3.00;;;2.33;;
60859;SDS011;46694;54.382;9.708;2023-06-24T12:57:58;3.90;;;2.13;;
60859;SDS011;46694;54.382;9.708;2023-06-24T13:00:37;3.50;;;2.93;;
60859;SDS011;46694;54.382;9.708;2023-06-24T13:03:17;5.60;;;2.37;;
60859;SDS011;46694;54.382;9.708;2023-06-24T13:05:57;2.70;;;2.50;;
60859;SDS011;46694;54.382;9.708;2023-06-24T13:08:36;2.50;;;2.30;;
60859;SDS011;46694;54.382;9.708;2023-06-24T13:11:16;2.50;;;2.33;;
60859;SDS011;46694;54.382;9.708;2023-06-24T13:13:55;6.83;;;3.63;;
60859;SDS011;46694;54.382;9.708;2023-06-24T13:16:35;2.67;;;2.43;;
60859;SDS011;46694;54.382;9.708;2023-06-24T13:19:15;8.73;;;3.13;;
60859;SDS011;46694;54.382;9.708;2023-06-24T13:21:56;12.60;;;2.53;;
60859;SDS011;46694;54.382;9.708;2023-06-24T13:24:35;6.37;;;2.80;;
60859;SDS011;46694;54.382;9.708;2023-06-24T13:27:15;5.60;;;2.67;;
60859;SDS011;46694;54.382;9.708;2023-06-24T13:29:55;3.37;;;2.13;;
60859;SDS011;46694;54.382;9.708;2023-06-24T13:32:35;3.23;;;2.37;;
60859;SDS011;46694;54.382;9.708;2023-06-24T13:35:15;6.30;;;3.07;;
60859;SDS011;46694;54.382;9.708;2023-06-24T13:37:54;3.47;;;2.87;;
60859;SDS011;46694;54.382;9.708;2023-06-24T13:40:34;4.00;;;2.50;;
60859;SDS011;46694;54.382;9.708;2023-06-24T13:43:13;5.17;;;3.10;;
60859;SDS011;46694;54.382;9.708;2023-06-24T13:45:53;4.00;;;3.03;;
60859;SDS011;46694;54.382;9.708;2023-06-24T13:48:33;3.73;;;3.10;;
60859;SDS011;46694;54.382;9.708;2023-06-24T13:51:13;2.87;;;2.50;;
60859;SDS011;46694;54.382;9.708;2023-06-24T13:53:53;5.53;;;2.90;;
60859;SDS011;46694;54.382;9.708;2023-06-24T13:56:33;3.60;;;3.20;;
60859;SDS011;46694;54.382;9.708;2023-06-24T13:59:13;5.00;;;3.27;;
60859;SDS011;46694;54.382;9.708;2023-06-24T14:01:52;5.50;;;2.80;;
60859;SDS011;46694;54.382;9.708;2023-06-24T14:04:32;3.70;;;3.20;;
60859;SDS011;46694;54.382;9.708;2023-06-24T14:07:12;3.67;;;2.83;;
60859;SDS011;46694;54.382;9.708;2023-06-24T14:09:51;5.33;;;2.60;;
60859;SDS011;46694;54.382;9.708;2023-06-24T14:12:31;7.07;;;3.20;;
60859;SDS011;46694;54.382;9.708;2023-06-24T14:15:10;4.40;;;3.30;;
60859;SDS011;46694;54.382;9.708;2023-06-24T14:17:50;5.97;;;3.33;;
60859;SDS011;46694;54.382;9.708;2023-06-24T14:20:30;4.13;;;3.27;;
60859;SDS011;46694;54.382;9.708;2023-06-24T14:23:09;5.17;;;3.40;;
60859;SDS011;46694;54.382;9.708;2023-06-24T14:25:49;4.80;;;3.37;;
60859;SDS011;46694;54.382;9.708;2023-06-24T14:28:29;7.00;;;3.20;;
60859;SDS011;46694;54.382;9.708;2023-06-24T14:31:09;3.07;;;2.83;;
60859;SDS011;46694;54.382;9.708;2023-06-24T14:33:48;3.90;;;3.20;;
60859;SDS011;46694;54.382;9.708;2023-06-24T14:36:28;3.40;;;2.53;;
60859;SDS011;46694;54.382;9.708;2023-06-24T14:39:07;5.10;;;3.07;;
60859;SDS011;46694;54.382;9.708;2023-06-24T14:41:47;5.90;;;3.77;;
60859;SDS011;46694;54.382;9.708;2023-06-24T14:44:27;3.70;;;3.37;;
60859;SDS011;46694;54.382;9.708;2023-06-24T14:47:06;3.47;;;3.10;;
60859;SDS011;46694;54.382;9.708;2023-06-24T14:49:45;3.87;;;3.40;;
60859;SDS011;46694;54.382;9.708;2023-06-24T14:52:25;5.23;;;4.23;;
60859;SDS011;46694;54.382;9.708;2023-06-24T14:55:05;4.10;;;3.70;;
60859;SDS011;46694;54.382;9.708;2023-06-24T14:57:45;3.97;;;3.00;;
60859;SDS011;46694;54.382;9.708;2023-06-24T15:00:24;3.57;;;3.30;;
60859;SDS011;46694;54.382;9.708;2023-06-24T15:03:04;3.60;;;3.30;;
60859;SDS011;46694;54.382;9.708;2023-06-24T15:05:46;6.67;;;3.67;;
60859;SDS011;46694;54.382;9.708;2023-06-24T15:08:25;4.33;;;3.83;;
60859;SDS011;46694;54.382;9.708;2023-06-24T15:11:05;5.77;;;3.50;;
60859;SDS011;46694;54.382;9.708;2023-06-24T15:13:44;4.90;;;3.70;;
60859;SDS011;46694;54.382;9.708;2023-06-24T15:16:24;5.77;;;3.70;;
60859;SDS011;46694;54.382;9.708;2023-06-24T15:19:04;5.10;;;3.87;;
60859;SDS011;46694;54.382;9.708;2023-06-24T15:21:43;4.43;;;3.97;;
60859;SDS011;46694;54.382;9.708;2023-06-24T15:24:23;4.80;;;4.23;;
60859;SDS011;46694;54.382;9.708;2023-06-24T15:27:02;4.30;;;3.80;;
60859;SDS011;46694;54.382;9.708;2023-06-24T15:29:42;3.80;;;3.40;;
60859;SDS011;46694;54.382;9.708;2023-06-24T15:32:22;4.87;;;4.30;;
60859;SDS011;46694;54.382;9.708;2023-06-24T15:35:04;5.10;;;3.27;;
60859;SDS011;46694;54.382;9.708;2023-06-24T15:37:45;3.13;;;2.93;;
60859;SDS011;46694;54.382;9.708;2023-06-24T15:40:24;3.80;;;3.13;;
60859;SDS011;46694;54.382;9.708;2023-06-24T15:43:04;2.70;;;2.50;;
60859;SDS011;46694;54.382;9.708;2023-06-24T15:45:47;2.93;;;2.73;;
60859;SDS011;46694;54.382;9.708;2023-06-24T15:48:26;3.30;;;3.00;;
60859;SDS011;46694;54.382;9.708;2023-06-24T15:51:06;3.00;;;2.80;;
60859;SDS011;46694;54.382;9.708;2023-06-24T15:53:46;3.63;;;3.10;;
60859;SDS011;46694;54.382;9.708;2023-06-24T15:56:25;5.30;;;2.97;;
60859;SDS011;46694;54.382;9.708;2023-06-24T15:59:05;3.33;;;3.03;;
60859;SDS011;46694;54.382;9.708;2023-06-24T16:01:44;2.70;;;2.60;;
60859;SDS011;46694;54.382;9.708;2023-06-24T16:04:24;3.77;;;2.77;;
60859;SDS011;46694;54.382;9.708;2023-06-24T16:07:04;3.10;;;2.90;;
60859;SDS011;46694;54.382;9.708;2023-06-24T16:09:43;4.43;;;2.93;;
60859;SDS011;46694;54.382;9.708;2023-06-24T16:12:23;5.97;;;3.13;;
60859;SDS011;46694;54.382;9.708;2023-06-24T16:15:03;4.80;;;3.00;;
60859;SDS011;46694;54.382;9.708;2023-06-24T16:17:43;4.43;;;3.13;;
60859;SDS011;46694;54.382;9.708;2023-06-24T16:20:22;4.70;;;3.20;;